createdAt,value
2023-03-29T00:00:36.045Z,4.65
2023-03-29T00:01:36.606Z,4.64
2023-03-29T00:02:36.656Z,4.61
2023-03-29T00:03:36.096Z,4.62
2023-03-29T00:04:36.463Z,4.59
2023-03-29T00:05:36.594Z,4.59
2023-03-29T00:06:36.938Z,4.62
2023-03-29T00:07:36.310Z,4.64
2023-03-29T00:08:36.551Z,4.65
2023-03-29T00:09:35.911Z,4.64
2023-03-29T00:10:36.272Z,4.67
2023-03-29T00:11:36.528Z,4.68
2023-03-29T00:12:35.881Z,4.65
2023-03-29T00:13:36.206Z,4.69
2023-03-29T00:14:35.497Z,4.69
2023-03-29T00:15:35.807Z,4.69
2023-03-29T00:16:36.230Z,4.74
2023-03-29T00:17:35.466Z,4.74
2023-03-29T00:18:35.800Z,4.75
2023-03-29T00:19:36.130Z,4.75
2023-03-29T00:20:35.411Z,4.74
2023-03-29T00:21:35.740Z,4.72
2023-03-29T00:22:36.104Z,4.74
2023-03-29T00:23:35.319Z,4.77
2023-03-29T00:24:35.627Z,4.79
2023-03-29T00:25:35.934Z,4.80
2023-03-29T00:26:35.215Z,4.87
2023-03-29T00:27:35.281Z,4.88
2023-03-29T00:28:35.748Z,4.87
2023-03-29T00:29:36.216Z,4.86
2023-03-29T00:30:36.581Z,4.91
2023-03-29T00:31:36.061Z,4.94
2023-03-29T00:32:36.157Z,4.94
2023-03-29T00:33:35.544Z,4.97
2023-03-29T00:34:35.923Z,4.97
2023-03-29T00:35:35.204Z,5.01
2023-03-29T00:36:35.482Z,5.02
2023-03-29T00:37:35.802Z,5.02
2023-03-29T00:38:35.081Z,5.04
2023-03-29T00:39:35.448Z,5.05
2023-03-29T00:40:35.899Z,5.08
2023-03-29T00:41:35.059Z,5.08
2023-03-29T00:42:35.380Z,5.12
2023-03-29T00:43:35.711Z,5.09
2023-03-29T00:44:35.018Z,5.09
2023-03-29T00:45:35.350Z,5.11
2023-03-29T00:46:35.930Z,5.11
2023-03-29T00:47:35.012Z,5.17
2023-03-29T00:48:35.338Z,5.14
2023-03-29T00:49:35.680Z,5.15
2023-03-29T00:50:34.971Z,5.14
2023-03-29T00:51:35.289Z,5.14
2023-03-29T00:52:35.725Z,5.12
2023-03-29T00:53:34.903Z,5.14
2023-03-29T00:54:35.236Z,5.15
2023-03-29T00:55:35.608Z,5.12
2023-03-29T00:56:35.832Z,5.12
2023-03-29T00:57:35.206Z,5.11
2023-03-29T00:58:35.615Z,5.08
2023-03-29T00:59:34.848Z,5.06
2023-03-29T01:00:35.189Z,5.06
2023-03-29T01:01:35.543Z,5.09
2023-03-29T01:02:35.115Z,5.11
2023-03-29T01:03:35.226Z,5.15
2023-03-29T01:04:35.574Z,5.14
2023-03-29T01:05:34.775Z,5.17
2023-03-29T01:06:35.206Z,5.15
2023-03-29T01:07:35.435Z,5.19
2023-03-29T01:08:34.768Z,5.17
2023-03-29T01:09:35.069Z,5.14
2023-03-29T01:10:35.434Z,5.15
2023-03-29T01:11:35.651Z,5.20
2023-03-29T01:12:36.060Z,5.20
2023-03-29T01:13:36.328Z,5.20
2023-03-29T01:14:34.702Z,5.20
2023-03-29T01:15:35.017Z,5.19
2023-03-29T01:16:35.478Z,5.20
2023-03-29T01:17:34.689Z,5.23
2023-03-29T01:18:35.005Z,5.24
2023-03-29T01:19:35.322Z,5.23
2023-03-29T01:20:34.617Z,5.24
2023-03-29T01:21:35.906Z,5.24
2023-03-29T01:22:35.402Z,5.24
2023-03-29T01:23:34.573Z,5.24
2023-03-29T01:24:34.930Z,5.23
2023-03-29T01:25:35.210Z,5.24
2023-03-29T01:26:34.527Z,5.26
2023-03-29T01:27:34.864Z,5.26
2023-03-29T01:28:35.241Z,5.29
2023-03-29T01:29:34.503Z,5.26
2023-03-29T01:30:34.828Z,5.30
2023-03-29T01:31:35.219Z,5.29
2023-03-29T01:32:35.519Z,5.26
2023-03-29T01:33:35.748Z,5.29
2023-03-29T01:34:34.480Z,5.29
2023-03-29T01:35:34.778Z,5.27
2023-03-29T01:36:35.045Z,5.26
2023-03-29T01:37:34.347Z,5.24
2023-03-29T01:38:35.625Z,5.27
2023-03-29T01:39:35.012Z,5.26
2023-03-29T01:40:36.362Z,5.26
2023-03-29T01:41:34.608Z,5.26
2023-03-29T01:42:34.927Z,5.24
2023-03-29T01:43:34.224Z,5.23
2023-03-29T01:44:34.555Z,5.27
2023-03-29T01:45:34.888Z,5.24
2023-03-29T01:46:34.283Z,5.24
2023-03-29T01:47:34.497Z,5.26
2023-03-29T01:48:34.812Z,5.26
2023-03-29T01:49:34.124Z,5.24
2023-03-29T01:50:34.754Z,5.24
2023-03-29T01:51:34.734Z,5.26
2023-03-29T01:52:35.047Z,5.26
2023-03-29T01:53:34.336Z,5.27
2023-03-29T01:54:34.656Z,5.27
2023-03-29T01:55:35.021Z,5.27
2023-03-29T01:56:34.270Z,5.29
2023-03-29T01:57:34.601Z,5.27
2023-03-29T01:58:34.896Z,5.29
2023-03-29T01:59:35.241Z,5.32
2023-03-29T02:00:34.551Z,5.33
2023-03-29T02:01:34.913Z,5.32
2023-03-29T02:02:34.235Z,5.35
2023-03-29T02:03:34.466Z,5.38
2023-03-29T02:04:35.770Z,5.37
2023-03-29T02:05:35.004Z,5.40
2023-03-29T02:06:34.352Z,5.40
2023-03-29T02:07:34.740Z,5.41
2023-03-29T02:08:34.934Z,5.42
2023-03-29T02:09:35.291Z,5.44
2023-03-29T02:10:35.639Z,5.42
2023-03-29T02:11:34.922Z,5.45
2023-03-29T02:12:35.298Z,5.47
2023-03-29T02:13:34.682Z,5.48
2023-03-29T02:14:33.905Z,5.47
2023-03-29T02:15:34.275Z,5.49
2023-03-29T02:16:34.579Z,5.49
2023-03-29T02:17:33.912Z,5.52
2023-03-29T02:18:34.268Z,5.51
2023-03-29T02:19:34.582Z,5.52
2023-03-29T02:20:34.799Z,5.56
2023-03-29T02:21:35.149Z,5.56
2023-03-29T02:22:35.473Z,5.56
2023-03-29T02:23:33.794Z,5.56
2023-03-29T02:24:35.078Z,5.59
2023-03-29T02:25:34.552Z,5.62
2023-03-29T02:26:34.707Z,5.63
2023-03-29T02:27:35.010Z,5.65
2023-03-29T02:28:34.399Z,5.63
2023-03-29T02:29:33.669Z,5.63
2023-03-29T02:30:33.951Z,5.62
2023-03-29T02:31:34.355Z,5.63
2023-03-29T02:32:33.562Z,5.67
2023-03-29T02:33:34.809Z,5.70
2023-03-29T02:34:35.120Z,5.69
2023-03-29T02:35:35.457Z,5.69
2023-03-29T02:36:33.786Z,5.73
2023-03-29T02:37:34.212Z,5.77
2023-03-29T02:38:34.407Z,5.75
2023-03-29T02:39:33.740Z,5.77
2023-03-29T02:40:34.011Z,5.80
2023-03-29T02:41:34.463Z,5.80
2023-03-29T02:42:33.629Z,5.81
2023-03-29T02:43:33.939Z,5.78
2023-03-29T02:44:34.255Z,5.78
2023-03-29T02:45:34.497Z,5.78
2023-03-29T02:46:33.925Z,5.80
2023-03-29T02:47:34.299Z,5.80
2023-03-29T02:48:33.512Z,5.80
2023-03-29T02:49:33.856Z,5.81
2023-03-29T02:50:34.211Z,5.83
2023-03-29T02:51:33.456Z,5.83
2023-03-29T02:52:33.784Z,5.83
2023-03-29T02:53:34.143Z,5.87
2023-03-29T02:54:33.402Z,5.84
2023-03-29T02:55:33.743Z,5.81
2023-03-29T02:56:35.028Z,5.83
2023-03-29T02:57:34.340Z,5.83
2023-03-29T02:58:33.913Z,5.78
2023-03-29T02:59:34.034Z,5.77
2023-03-29T03:00:33.325Z,5.80
2023-03-29T03:01:33.680Z,5.81
2023-03-29T03:02:34.107Z,5.83
2023-03-29T03:03:33.395Z,5.84
2023-03-29T03:04:33.881Z,5.84
2023-03-29T03:05:33.938Z,5.87
2023-03-29T03:06:33.218Z,5.90
2023-03-29T03:07:33.542Z,5.90
2023-03-29T03:08:33.821Z,5.93
2023-03-29T03:09:33.121Z,5.95
2023-03-29T03:10:33.534Z,5.98
2023-03-29T03:11:33.832Z,6.01
2023-03-29T03:12:34.046Z,6.01
2023-03-29T03:13:34.379Z,5.99
2023-03-29T03:14:33.746Z,6.02
2023-03-29T03:15:33.044Z,6.05
2023-03-29T03:16:34.474Z,6.02
2023-03-29T03:17:33.691Z,6.03
2023-03-29T03:18:32.970Z,6.01
2023-03-29T03:19:34.262Z,6.05
2023-03-29T03:20:33.655Z,6.05
2023-03-29T03:21:32.910Z,6.08
2023-03-29T03:22:33.286Z,6.10
2023-03-29T03:23:34.516Z,6.08
2023-03-29T03:24:33.863Z,6.13
2023-03-29T03:25:33.421Z,6.13
2023-03-29T03:26:33.492Z,6.14
2023-03-29T03:27:34.802Z,6.16
2023-03-29T03:28:33.102Z,6.17
2023-03-29T03:29:33.428Z,6.19
2023-03-29T03:30:34.686Z,6.20
2023-03-29T03:31:33.099Z,6.20
2023-03-29T03:32:33.402Z,6.20
2023-03-29T03:33:33.788Z,6.20
2023-03-29T03:34:33.004Z,6.19
2023-03-29T03:35:33.350Z,6.19
2023-03-29T03:36:33.645Z,6.19
2023-03-29T03:37:32.929Z,6.24
2023-03-29T03:38:33.262Z,6.24
2023-03-29T03:39:33.601Z,6.24
2023-03-29T03:40:32.860Z,6.24
2023-03-29T03:41:33.157Z,6.25
2023-03-29T03:42:34.418Z,6.32
2023-03-29T03:43:32.759Z,6.32
2023-03-29T03:44:33.067Z,6.35
2023-03-29T03:45:33.462Z,6.32
2023-03-29T03:46:33.648Z,6.32
2023-03-29T03:47:34.038Z,6.32
2023-03-29T03:48:34.335Z,6.36
2023-03-29T03:49:33.621Z,6.36
2023-03-29T03:50:33.924Z,6.36
2023-03-29T03:51:33.382Z,6.36
2023-03-29T03:52:32.638Z,6.38
2023-03-29T03:53:32.906Z,6.39
2023-03-29T03:54:34.192Z,6.35
2023-03-29T03:55:32.486Z,6.36
2023-03-29T03:56:33.768Z,6.36
2023-03-29T03:57:33.194Z,6.36
2023-03-29T03:58:34.394Z,6.32
2023-03-29T03:59:32.709Z,6.30
2023-03-29T04:00:33.027Z,6.28
2023-03-29T04:01:34.331Z,6.30
2023-03-29T04:02:32.667Z,6.28
2023-03-29T04:03:33.024Z,6.30
2023-03-29T04:04:33.295Z,6.30
2023-03-29T04:05:33.471Z,6.33
2023-03-29T04:06:33.781Z,6.35
2023-03-29T04:07:33.135Z,6.35
2023-03-29T04:08:33.381Z,6.36
2023-03-29T04:09:32.778Z,6.38
2023-03-29T04:10:33.030Z,6.36
2023-03-29T04:11:32.299Z,6.38
2023-03-29T04:12:32.589Z,6.35
2023-03-29T04:13:33.863Z,6.36
2023-03-29T04:14:33.226Z,6.40
2023-03-29T04:15:32.561Z,6.40
2023-03-29T04:16:32.812Z,6.40
2023-03-29T04:17:33.188Z,6.43
2023-03-29T04:18:32.510Z,6.42
2023-03-29T04:19:32.777Z,6.43
2023-03-29T04:20:33.123Z,6.42
2023-03-29T04:21:32.376Z,6.40
2023-03-29T04:22:32.722Z,6.42
2023-03-29T04:23:34.007Z,6.43
2023-03-29T04:24:32.312Z,6.45
2023-03-29T04:25:32.666Z,6.46
2023-03-29T04:26:33.905Z,6.43
2023-03-29T04:27:33.222Z,6.43
2023-03-29T04:28:32.569Z,6.46
2023-03-29T04:29:32.882Z,6.46
2023-03-29T04:30:32.176Z,6.48
2023-03-29T04:31:32.775Z,6.53
2023-03-29T04:32:32.843Z,6.58
2023-03-29T04:33:33.099Z,6.60
2023-03-29T04:34:33.375Z,6.63
2023-03-29T04:35:33.773Z,6.61
2023-03-29T04:36:32.029Z,6.61
2023-03-29T04:37:32.459Z,6.61
2023-03-29T04:38:32.654Z,6.61
2023-03-29T04:39:32.946Z,6.63
2023-03-29T04:40:32.246Z,6.65
2023-03-29T04:41:32.540Z,6.63
2023-03-29T04:42:32.906Z,6.61
2023-03-29T04:43:32.124Z,6.58
2023-03-29T04:44:33.454Z,6.55
2023-03-29T04:45:32.771Z,6.53
2023-03-29T04:46:33.074Z,6.51
2023-03-29T04:47:32.336Z,6.50
2023-03-29T04:48:32.667Z,6.46
2023-03-29T04:49:32.860Z,6.46
2023-03-29T04:50:33.138Z,6.43
2023-03-29T04:51:33.471Z,6.39
2023-03-29T04:52:31.768Z,6.36
2023-03-29T04:53:32.097Z,6.32
2023-03-29T04:54:32.454Z,6.30
2023-03-29T04:55:33.689Z,6.28
2023-03-29T04:56:32.954Z,6.25
2023-03-29T04:57:33.258Z,6.25
2023-03-29T04:58:32.944Z,6.27
2023-03-29T04:59:32.860Z,6.21
2023-03-29T05:00:32.478Z,6.21
2023-03-29T05:01:32.574Z,6.24
2023-03-29T05:02:31.861Z,6.24
2023-03-29T05:03:33.130Z,6.28
2023-03-29T05:04:33.472Z,6.27
2023-03-29T05:05:31.770Z,6.25
2023-03-29T05:06:32.106Z,6.27
2023-03-29T05:07:32.478Z,6.21
2023-03-29T05:08:31.658Z,6.20
2023-03-29T05:09:34.318Z,6.24
2023-03-29T05:10:32.309Z,6.25
2023-03-29T05:11:31.566Z,6.24
2023-03-29T05:12:32.002Z,6.21
2023-03-29T05:13:32.168Z,6.20
2023-03-29T05:14:32.485Z,6.20
2023-03-29T05:15:31.785Z,6.20
2023-03-29T05:16:32.102Z,6.19
2023-03-29T05:17:32.396Z,6.21
2023-03-29T05:18:31.623Z,6.20
2023-03-29T05:19:32.015Z,6.21
2023-03-29T05:20:32.261Z,6.21
2023-03-29T05:21:31.518Z,6.21
2023-03-29T05:22:31.871Z,6.21
2023-03-29T05:23:32.138Z,6.21
2023-03-29T05:24:32.335Z,6.21
2023-03-29T05:25:31.776Z,6.20
2023-03-29T05:26:32.016Z,6.21
2023-03-29T05:27:32.296Z,6.20
2023-03-29T05:28:31.583Z,6.21
2023-03-29T05:29:31.925Z,6.20
2023-03-29T05:30:32.349Z,6.20
2023-03-29T05:31:31.573Z,6.20
2023-03-29T05:32:31.921Z,6.19
2023-03-29T05:33:32.286Z,6.21
2023-03-29T05:34:32.469Z,6.19
2023-03-29T05:35:31.869Z,6.20
2023-03-29T05:36:32.186Z,6.20
2023-03-29T05:37:31.490Z,6.19
2023-03-29T05:38:32.721Z,6.16
2023-03-29T05:39:32.060Z,6.17
2023-03-29T05:40:32.331Z,6.28
2023-03-29T05:41:32.637Z,6.19
2023-03-29T05:42:32.919Z,6.19
2023-03-29T05:43:31.233Z,6.20
2023-03-29T05:44:31.601Z,6.21
2023-03-29T05:45:31.886Z,6.19
2023-03-29T05:46:31.219Z,6.19
2023-03-29T05:47:31.531Z,6.20
2023-03-29T05:48:31.806Z,6.20
2023-03-29T05:49:31.100Z,6.21
2023-03-29T05:50:31.427Z,6.21
2023-03-29T05:51:31.765Z,6.24
2023-03-29T05:52:31.049Z,6.24
2023-03-29T05:53:31.463Z,6.25
2023-03-29T05:54:32.718Z,6.25
2023-03-29T05:55:31.964Z,6.24
2023-03-29T05:56:32.313Z,6.25
2023-03-29T05:57:31.658Z,6.21
2023-03-29T05:58:30.986Z,6.25
2023-03-29T05:59:31.733Z,6.24
2023-03-29T06:00:32.599Z,6.21
2023-03-29T06:01:31.910Z,6.20
2023-03-29T06:02:32.330Z,6.20
2023-03-29T06:03:32.709Z,6.19
2023-03-29T06:04:31.939Z,6.19
2023-03-29T06:05:32.438Z,6.17
2023-03-29T06:06:31.544Z,6.20
2023-03-29T06:07:30.814Z,6.20
2023-03-29T06:08:31.136Z,6.21
2023-03-29T06:09:32.459Z,6.20
2023-03-29T06:10:30.765Z,6.21
2023-03-29T06:11:31.241Z,6.21
2023-03-29T06:12:32.385Z,6.24
2023-03-29T06:13:30.742Z,6.21
2023-03-29T06:14:31.058Z,6.24
2023-03-29T06:15:31.362Z,6.27
2023-03-29T06:16:31.788Z,6.28
2023-03-29T06:17:31.012Z,6.30
2023-03-29T06:18:32.272Z,6.32
2023-03-29T06:19:31.552Z,6.30
2023-03-29T06:20:31.804Z,6.35
2023-03-29T06:21:31.166Z,6.36
2023-03-29T06:22:32.187Z,6.36
2023-03-29T06:23:30.761Z,6.38
2023-03-29T06:24:31.070Z,6.36
2023-03-29T06:25:31.396Z,6.35
2023-03-29T06:26:31.641Z,6.32
2023-03-29T06:27:31.979Z,6.33
2023-03-29T06:28:32.306Z,6.38
2023-03-29T06:29:30.592Z,6.38
2023-03-29T06:30:30.982Z,6.38
2023-03-29T06:31:32.207Z,6.38
2023-03-29T06:32:30.533Z,6.40
2023-03-29T06:33:30.888Z,6.42
2023-03-29T06:34:32.125Z,6.42
2023-03-29T06:35:31.417Z,6.43
2023-03-29T06:36:30.777Z,6.46
2023-03-29T06:37:32.028Z,6.46
2023-03-29T06:38:30.344Z,6.48
2023-03-29T06:39:30.678Z,6.48
2023-03-29T06:40:31.107Z,6.50
2023-03-29T06:41:31.328Z,6.48
2023-03-29T06:42:30.643Z,6.50
2023-03-29T06:43:30.903Z,6.51
2023-03-29T06:44:32.173Z,6.51
2023-03-29T06:45:31.453Z,6.51
2023-03-29T06:46:30.907Z,6.57
2023-03-29T06:47:32.097Z,6.58
2023-03-29T06:48:30.412Z,6.58
2023-03-29T06:49:30.728Z,6.61
2023-03-29T06:50:32.032Z,6.63
2023-03-29T06:51:30.274Z,6.64
2023-03-29T06:52:31.632Z,6.65
2023-03-29T06:53:30.948Z,6.68
2023-03-29T06:54:31.359Z,6.71
2023-03-29T06:55:30.440Z,6.72
2023-03-29T06:56:31.732Z,6.76
2023-03-29T06:57:31.026Z,6.79
2023-03-29T06:58:30.294Z,6.79
2023-03-29T06:59:31.532Z,6.81
2023-03-29T07:00:30.872Z,6.82
2023-03-29T07:01:31.185Z,6.87
2023-03-29T07:02:31.428Z,6.87
2023-03-29T07:03:31.715Z,6.93
2023-03-29T07:04:31.111Z,6.94
2023-03-29T07:05:30.282Z,6.97
2023-03-29T07:06:31.547Z,7.04
2023-03-29T07:07:31.827Z,7.08
2023-03-29T07:08:30.119Z,7.09
2023-03-29T07:09:30.537Z,7.12
2023-03-29T07:10:31.689Z,7.15
2023-03-29T07:11:30.950Z,7.16
2023-03-29T07:12:30.264Z,7.18
2023-03-29T07:13:30.577Z,7.19
2023-03-29T07:14:30.972Z,7.21
2023-03-29T07:15:30.158Z,7.23
2023-03-29T07:16:30.388Z,7.24
2023-03-29T07:17:31.690Z,7.26
2023-03-29T07:18:29.926Z,7.27
2023-03-29T07:19:30.359Z,7.26
2023-03-29T07:20:30.562Z,7.30
2023-03-29T07:21:30.855Z,7.30
2023-03-29T07:22:30.133Z,7.32
2023-03-29T07:23:31.406Z,7.32
2023-03-29T07:24:30.778Z,7.32
2023-03-29T07:25:30.965Z,7.33
2023-03-29T07:26:30.472Z,7.32
2023-03-29T07:27:31.586Z,7.33
2023-03-29T07:28:29.927Z,7.33
2023-03-29T07:29:31.220Z,7.33
2023-03-29T07:30:32.138Z,7.33
2023-03-29T07:31:29.864Z,7.36
2023-03-29T07:32:30.374Z,7.37
2023-03-29T07:33:31.513Z,7.37
2023-03-29T07:34:29.732Z,7.41
2023-03-29T07:35:30.047Z,7.41
2023-03-29T07:36:31.326Z,7.44
2023-03-29T07:37:29.652Z,7.45
2023-03-29T07:38:30.060Z,7.45
2023-03-29T07:39:30.268Z,7.47
2023-03-29T07:40:30.608Z,7.48
2023-03-29T07:41:30.800Z,7.51
2023-03-29T07:42:31.127Z,7.51
2023-03-29T07:43:30.529Z,7.54
2023-03-29T07:44:29.763Z,7.54
2023-03-29T07:45:31.073Z,7.60
2023-03-29T07:46:31.332Z,7.60
2023-03-29T07:47:30.706Z,7.63
2023-03-29T07:48:29.973Z,7.66
2023-03-29T07:49:31.338Z,7.67
2023-03-29T07:50:29.597Z,7.70
2023-03-29T07:51:30.836Z,7.71
2023-03-29T07:52:30.189Z,7.73
2023-03-29T07:53:29.468Z,7.76
2023-03-29T07:54:30.734Z,7.81
2023-03-29T07:55:30.204Z,7.81
2023-03-29T07:56:30.378Z,7.85
2023-03-29T07:57:30.643Z,7.86
2023-03-29T07:58:31.046Z,7.86
2023-03-29T07:59:30.298Z,7.89
2023-03-29T08:00:29.570Z,7.96
2023-03-29T08:01:29.896Z,7.96
2023-03-29T08:02:30.195Z,8.00
2023-03-29T08:03:30.419Z,8.03
2023-03-29T08:04:30.785Z,8.06
2023-03-29T08:05:40.693Z,8.07
2023-03-29T08:06:30.291Z,8.13
2023-03-29T08:07:30.623Z,8.18
2023-03-29T08:08:29.968Z,8.21
2023-03-29T08:09:30.132Z,8.21
2023-03-29T08:10:30.466Z,8.27
2023-03-29T08:11:30.802Z,8.29
2023-03-29T08:12:31.352Z,8.32
2023-03-29T08:13:30.364Z,8.36
2023-03-29T08:14:30.611Z,8.40
2023-03-29T08:15:29.930Z,8.40
2023-03-29T08:16:29.251Z,8.43
2023-03-29T08:17:29.570Z,8.45
2023-03-29T08:18:31.603Z,8.52
2023-03-29T08:19:30.088Z,8.49
2023-03-29T08:20:30.283Z,8.52
2023-03-29T08:21:30.577Z,8.57
2023-03-29T08:22:30.014Z,8.63
2023-03-29T08:23:29.213Z,8.64
2023-03-29T08:24:30.528Z,8.73
2023-03-29T08:25:30.719Z,8.82
2023-03-29T08:26:29.037Z,8.89
2023-03-29T08:27:30.308Z,9.00
2023-03-29T08:28:29.626Z,9.08
2023-03-29T08:29:30.892Z,9.17
2023-03-29T08:30:30.193Z,9.27
2023-03-29T08:31:29.476Z,9.34
2023-03-29T08:32:29.801Z,9.38
2023-03-29T08:33:29.905Z,9.45
2023-03-29T08:34:30.170Z,9.48
2023-03-29T08:35:29.674Z,9.53
2023-03-29T08:36:29.762Z,9.55
2023-03-29T08:37:29.972Z,9.58
2023-03-29T08:38:29.298Z,9.60
2023-03-29T08:39:29.557Z,9.65
2023-03-29T08:40:29.785Z,9.63
2023-03-29T08:41:29.128Z,9.65
2023-03-29T08:42:29.338Z,9.68
2023-03-29T08:43:29.612Z,9.73
2023-03-29T08:44:28.831Z,9.78
2023-03-29T08:45:30.086Z,9.81
2023-03-29T08:46:35.171Z,9.83
2023-03-29T08:47:29.677Z,9.89
2023-03-29T08:48:29.928Z,9.89
2023-03-29T08:49:29.220Z,9.92
2023-03-29T08:50:29.522Z,9.92
2023-03-29T08:51:29.668Z,9.95
2023-03-29T08:52:30.602Z,9.98
2023-03-29T08:53:29.226Z,9.96
2023-03-29T08:54:30.538Z,10.02
2023-03-29T08:55:28.749Z,9.98
2023-03-29T08:56:30.283Z,9.99
2023-03-29T08:57:29.355Z,10.02
2023-03-29T08:58:29.522Z,10.04
2023-03-29T08:59:29.771Z,10.02
2023-03-29T09:00:29.091Z,10.07
2023-03-29T09:01:30.387Z,10.04
2023-03-29T09:02:28.708Z,10.02
2023-03-29T09:03:29.096Z,10.09
2023-03-29T09:04:29.160Z,10.06
2023-03-29T09:05:30.408Z,10.06
2023-03-29T09:06:28.636Z,10.07
2023-03-29T09:07:28.911Z,10.07
2023-03-29T09:08:30.152Z,10.06
2023-03-29T09:09:29.367Z,10.06
2023-03-29T09:10:29.696Z,10.07
2023-03-29T09:11:28.972Z,10.02
2023-03-29T09:12:30.171Z,10.02
2023-03-29T09:13:29.466Z,10.02
2023-03-29T09:14:28.707Z,10.02
2023-03-29T09:15:29.955Z,10.02
2023-03-29T09:16:29.271Z,10.07
2023-03-29T09:17:29.475Z,10.09
2023-03-29T09:18:29.777Z,10.07
2023-03-29T09:19:29.115Z,10.10
2023-03-29T09:20:29.200Z,10.10
2023-03-29T09:21:29.480Z,10.09
2023-03-29T09:22:29.769Z,10.09
2023-03-29T09:23:30.095Z,10.10
2023-03-29T09:24:28.342Z,10.10
2023-03-29T09:25:29.521Z,10.09
2023-03-29T09:26:29.747Z,10.07
2023-03-29T09:27:30.070Z,10.06
2023-03-29T09:28:29.251Z,10.04
2023-03-29T09:29:28.581Z,10.02
2023-03-29T09:30:29.765Z,10.01
2023-03-29T09:31:30.102Z,9.96
2023-03-29T09:32:28.306Z,9.95
2023-03-29T09:33:28.684Z,9.96
2023-03-29T09:34:28.919Z,9.95
2023-03-29T09:35:29.176Z,9.95
2023-03-29T09:36:28.304Z,9.96
2023-03-29T09:37:28.560Z,9.98
2023-03-29T09:38:28.826Z,9.98
2023-03-29T09:39:30.081Z,9.99
2023-03-29T09:40:29.308Z,10.01
2023-03-29T09:41:29.607Z,10.04
2023-03-29T09:42:28.926Z,10.06
2023-03-29T09:43:28.098Z,10.06
2023-03-29T09:44:31.181Z,10.09
2023-03-29T09:45:28.673Z,10.13
2023-03-29T09:46:29.008Z,10.16
2023-03-29T09:47:29.062Z,10.17
2023-03-29T09:48:28.416Z,10.20
2023-03-29T09:49:29.666Z,10.22
2023-03-29T09:50:31.634Z,10.24
2023-03-29T09:51:29.101Z,10.25
2023-03-29T09:52:28.436Z,10.28
2023-03-29T09:53:28.754Z,10.31
2023-03-29T09:54:28.178Z,10.31
2023-03-29T09:55:29.259Z,10.32
2023-03-29T09:56:28.511Z,10.31
2023-03-29T09:57:29.804Z,10.31
2023-03-29T09:58:27.986Z,10.29
2023-03-29T09:59:29.280Z,10.31
2023-03-29T10:00:29.569Z,10.29
2023-03-29T10:01:27.750Z,10.29
2023-03-29T10:02:28.001Z,10.26
2023-03-29T10:03:28.220Z,10.28
2023-03-29T10:04:29.420Z,10.29
2023-03-29T10:05:27.663Z,10.29
2023-03-29T10:06:27.974Z,10.29
2023-03-29T10:07:28.317Z,10.32
2023-03-29T10:08:28.410Z,10.35
2023-03-29T10:09:27.646Z,10.38
2023-03-29T10:10:27.918Z,10.38
2023-03-29T10:11:28.160Z,10.46
2023-03-29T10:12:28.391Z,10.47
2023-03-29T10:13:27.625Z,10.52
2023-03-29T10:14:28.845Z,10.54
2023-03-29T10:15:30.039Z,10.57
2023-03-29T10:16:28.476Z,10.58
2023-03-29T10:17:27.682Z,10.65
2023-03-29T10:18:27.827Z,10.68
2023-03-29T10:19:28.103Z,10.69
2023-03-29T10:20:29.260Z,10.66
2023-03-29T10:21:27.516Z,10.73
2023-03-29T10:22:27.838Z,10.75
2023-03-29T10:23:28.096Z,10.78
2023-03-29T10:24:28.308Z,10.78
2023-03-29T10:25:27.531Z,10.80
2023-03-29T10:26:27.920Z,10.80
2023-03-29T10:27:28.078Z,10.80
2023-03-29T10:28:28.312Z,10.81
2023-03-29T10:29:27.630Z,10.81
2023-03-29T10:30:27.797Z,10.81
2023-03-29T10:31:28.149Z,10.81
2023-03-29T10:32:27.347Z,10.81
2023-03-29T10:33:27.571Z,10.80
2023-03-29T10:34:27.810Z,10.84
2023-03-29T10:35:28.130Z,10.83
2023-03-29T10:36:27.292Z,10.84
2023-03-29T10:37:27.587Z,10.83
2023-03-29T10:38:27.811Z,10.83
2023-03-29T10:39:28.062Z,10.87
2023-03-29T10:40:27.275Z,10.88
2023-03-29T10:41:27.532Z,10.88
2023-03-29T10:42:27.826Z,10.91
2023-03-29T10:43:28.046Z,10.95
2023-03-29T10:44:27.597Z,10.95
2023-03-29T10:45:27.566Z,10.99
2023-03-29T10:46:27.926Z,11.03
2023-03-29T10:47:28.069Z,11.06
2023-03-29T10:48:27.326Z,11.12
2023-03-29T10:49:27.526Z,11.17
2023-03-29T10:50:27.809Z,11.21
2023-03-29T10:51:28.089Z,11.26
2023-03-29T10:52:27.280Z,11.30
2023-03-29T10:53:27.492Z,11.38
2023-03-29T10:54:27.778Z,11.42
2023-03-29T10:55:28.033Z,11.49
2023-03-29T10:56:27.241Z,11.48
2023-03-29T10:57:27.508Z,11.56
2023-03-29T10:58:27.713Z,11.60
2023-03-29T10:59:27.960Z,11.64
2023-03-29T11:00:27.159Z,11.69
2023-03-29T11:01:27.586Z,11.75
2023-03-29T11:02:27.731Z,11.78
2023-03-29T11:03:28.061Z,11.84
2023-03-29T11:04:27.160Z,11.93
2023-03-29T11:05:29.436Z,12.01
2023-03-29T11:06:27.599Z,12.07
2023-03-29T11:07:27.928Z,12.13
2023-03-29T11:08:28.484Z,12.25
2023-03-29T11:09:27.264Z,12.26
2023-03-29T11:10:27.525Z,12.30
2023-03-29T11:11:27.725Z,12.36
2023-03-29T11:12:26.986Z,12.40
2023-03-29T11:13:27.184Z,12.46
2023-03-29T11:14:27.452Z,12.54
2023-03-29T11:15:27.637Z,12.51
2023-03-29T11:16:26.875Z,12.51
2023-03-29T11:17:27.079Z,12.52
2023-03-29T11:18:27.279Z,12.56
2023-03-29T11:19:27.495Z,12.62
2023-03-29T11:20:28.677Z,12.62
2023-03-29T11:21:26.874Z,12.63
2023-03-29T11:22:28.025Z,12.67
2023-03-29T11:23:27.432Z,12.67
2023-03-29T11:24:27.509Z,12.69
2023-03-29T11:25:29.132Z,12.66
2023-03-29T11:26:26.890Z,12.69
2023-03-29T11:27:27.110Z,12.71
2023-03-29T11:28:27.340Z,12.76
2023-03-29T11:29:27.599Z,12.80
2023-03-29T11:30:26.717Z,12.98
2023-03-29T11:31:27.976Z,12.91
2023-03-29T11:32:28.164Z,12.91
2023-03-29T11:33:27.433Z,12.94
2023-03-29T11:34:26.609Z,12.98
2023-03-29T11:35:26.950Z,13.01
2023-03-29T11:36:27.130Z,12.99
2023-03-29T11:37:28.245Z,12.98
2023-03-29T11:38:26.482Z,13.03
2023-03-29T11:39:26.694Z,13.04
2023-03-29T11:40:26.920Z,13.09
2023-03-29T11:41:27.237Z,13.12
2023-03-29T11:42:27.394Z,13.17
2023-03-29T11:43:26.525Z,13.24
2023-03-29T11:44:26.889Z,13.31
2023-03-29T11:45:27.148Z,13.41
2023-03-29T11:46:27.320Z,13.47
2023-03-29T11:47:26.491Z,13.51
2023-03-29T11:48:26.663Z,13.61
2023-03-29T11:49:26.854Z,13.65
2023-03-29T11:50:27.108Z,13.71
2023-03-29T11:51:26.314Z,13.79
2023-03-29T11:52:26.552Z,13.83
2023-03-29T11:53:26.848Z,13.88
2023-03-29T11:54:26.960Z,13.93
2023-03-29T11:55:27.168Z,13.88
2023-03-29T11:56:26.362Z,13.87
2023-03-29T11:57:26.656Z,13.90
2023-03-29T11:58:26.774Z,13.90
2023-03-29T11:59:27.989Z,13.90
2023-03-29T12:00:26.223Z,13.88
2023-03-29T12:01:26.437Z,13.86
2023-03-29T12:02:26.718Z,13.81
2023-03-29T12:03:27.019Z,13.87
2023-03-29T12:04:27.106Z,13.88
2023-03-29T12:05:26.269Z,13.86
2023-03-29T12:06:27.402Z,13.88
2023-03-29T12:07:26.793Z,13.88
2023-03-29T12:08:27.846Z,13.96
2023-03-29T12:09:26.081Z,14.05
2023-03-29T12:10:26.334Z,14.13
2023-03-29T12:11:26.433Z,14.27
2023-03-29T12:12:27.587Z,14.45
2023-03-29T12:13:26.811Z,14.46
2023-03-29T12:14:27.887Z,14.46
2023-03-29T12:15:26.166Z,14.44
2023-03-29T12:16:27.338Z,14.44
2023-03-29T12:17:27.505Z,14.29
2023-03-29T12:18:26.721Z,14.24
2023-03-29T12:19:27.897Z,14.24
2023-03-29T12:20:26.118Z,14.30
2023-03-29T12:21:26.795Z,14.38
2023-03-29T12:22:26.477Z,14.44
2023-03-29T12:23:26.671Z,14.59
2023-03-29T12:24:25.864Z,14.72
2023-03-29T12:25:27.095Z,14.85
2023-03-29T12:26:26.257Z,15.05
2023-03-29T12:27:26.574Z,15.09
2023-03-29T12:28:26.696Z,15.12
2023-03-29T12:29:25.859Z,15.12
2023-03-29T12:30:26.091Z,15.11
2023-03-29T12:31:26.331Z,15.05
2023-03-29T12:32:26.589Z,14.95
2023-03-29T12:33:26.777Z,14.93
2023-03-29T12:34:25.909Z,14.93
2023-03-29T12:35:27.103Z,14.83
2023-03-29T12:36:27.258Z,14.82
2023-03-29T12:37:26.533Z,14.82
2023-03-29T12:38:26.348Z,14.80
2023-03-29T12:39:25.953Z,14.83
2023-03-29T12:40:26.148Z,14.82
2023-03-29T12:41:26.373Z,14.82
2023-03-29T12:42:26.573Z,14.95
2023-03-29T12:43:26.771Z,15.00
2023-03-29T12:44:26.002Z,15.01
2023-03-29T12:45:26.215Z,15.05
2023-03-29T12:46:26.676Z,15.13
2023-03-29T12:47:25.587Z,15.20
2023-03-29T12:48:25.823Z,15.22
2023-03-29T12:49:25.996Z,15.20
2023-03-29T12:50:26.217Z,15.18
2023-03-29T12:51:26.357Z,15.23
2023-03-29T12:52:25.584Z,15.25
2023-03-29T12:53:25.707Z,15.27
2023-03-29T12:54:28.177Z,15.22
2023-03-29T12:55:26.166Z,15.23
2023-03-29T12:56:26.327Z,15.18
2023-03-29T12:57:25.555Z,15.15
2023-03-29T12:58:25.639Z,15.12
2023-03-29T12:59:25.837Z,15.07
2023-03-29T13:00:25.998Z,15.04
2023-03-29T13:01:26.512Z,15.04
2023-03-29T13:02:26.537Z,15.03
2023-03-29T13:03:25.505Z,14.98
2023-03-29T13:04:25.689Z,14.98
2023-03-29T13:05:25.867Z,14.98
2023-03-29T13:06:26.035Z,14.98
2023-03-29T13:07:26.240Z,14.95
2023-03-29T13:08:25.465Z,15.07
2023-03-29T13:09:25.576Z,15.11
2023-03-29T13:10:25.761Z,15.12